Time;durP1;ratioP1;P1;durP2;ratioP2;P2;SDS_P1;SDS_P2;PMS_P1;PMS_P2;Temp;Humidity;BMP_temperature;BMP_pressure;BME280_temperature;BME280_humidity;BME280_pressure;Samples;Min_cycle;Max_cycle;Signal;HPM_P1;HPM_P2
2021/10/20 00:02:13;;;;;;;6.63;2.70;;;16.00;74.90;;;;;;5073797;28;20537;-48
2021/10/20 00:04:39;;;;;;;4.50;2.92;;;16.00;74.50;;;;;;5073719;28;20050;-48
2021/10/20 00:07:04;;;;;;;4.03;2.40;;;15.90;74.80;;;;;;5074298;28;20024;-49
2021/10/20 00:09:30;;;;;;;4.50;2.33;;;16.00;74.10;;;;;;5074021;28;20465;-47
2021/10/20 00:11:55;;;;;;;5.57;2.80;;;15.90;74.40;;;;;;5073914;28;20063;-47
2021/10/20 00:14:21;;;;;;;6.57;2.80;;;16.00;74.10;;;;;;5055807;28;20032;-52
2021/10/20 00:16:47;;;;;;;4.45;2.58;;;15.90;74.40;;;;;;5055737;28;20029;-48
2021/10/20 00:19:13;;;;;;;5.15;3.13;;;15.80;74.30;;;;;;5073434;28;20155;-48
2021/10/20 00:21:39;;;;;;;3.35;2.42;;;16.00;73.80;;;;;;5073475;28;20511;-49
2021/10/20 00:24:05;;;;;;;3.40;2.42;;;16.00;73.90;;;;;;5073143;28;20476;-47
2021/10/20 00:26:30;;;;;;;5.68;2.83;;;15.90;74.10;;;;;;5073193;28;20388;-47
2021/10/20 00:28:56;;;;;;;3.65;2.22;;;15.80;74.60;;;;;;5073357;28;20074;-47
2021/10/20 00:31:22;;;;;;;6.93;3.25;;;15.70;75.10;;;;;;5073425;28;20131;-51
2021/10/20 00:33:47;;;;;;;3.50;2.58;;;15.70;75.20;;;;;;5073633;28;20021;-51
2021/10/20 00:36:13;;;;;;;4.15;2.40;;;15.80;74.50;;;;;;5073295;28;20032;-50
2021/10/20 00:38:39;;;;;;;3.90;2.92;;;15.90;74.10;;;;;;5073285;28;20078;-49
2021/10/20 00:41:05;;;;;;;4.72;2.58;;;15.80;73.90;;;;;;5073409;28;20025;-49
2021/10/20 00:43:31;;;;;;;6.80;2.80;;;15.80;74.80;;;;;;5073414;28;20111;-50
2021/10/20 00:45:57;;;;;;;4.55;3.53;;;15.80;74.50;;;;;;5073302;28;20025;-47
2021/10/20 00:48:22;;;;;;;8.73;3.15;;;15.80;74.40;;;;;;5073140;28;20349;-47
2021/10/20 00:50:48;;;;;;;7.53;3.13;;;15.70;74.80;;;;;;5055475;28;20020;-49
2021/10/20 00:53:14;;;;;;;4.57;2.85;;;15.70;74.50;;;;;;5073177;28;20066;-50
2021/10/20 00:55:39;;;;;;;5.93;2.88;;;15.80;74.30;;;;;;5073319;28;20484;-47
2021/10/20 00:58:07;;;;;;;3.80;2.45;;;15.80;74.40;;;;;;5055012;28;20059;-47
2021/10/20 01:00:33;;;;;;;3.78;3.35;;;15.80;74.60;;;;;;5072823;28;20044;-48
2021/10/20 01:02:59;;;;;;;6.78;2.83;;;15.80;74.40;;;;;;5073065;28;20472;-50
2021/10/20 01:05:26;;;;;;;2.85;2.15;;;15.80;74.10;;;;;;5054546;28;20048;-51
2021/10/20 01:07:52;;;;;;;5.93;2.78;;;15.70;74.40;;;;;;5072994;28;20029;-50
2021/10/20 01:10:18;;;;;;;2.75;2.28;;;15.70;74.40;;;;;;5072771;28;20024;-51
2021/10/20 01:12:45;;;;;;;4.13;2.47;;;15.70;74.50;;;;;;5072731;28;20033;-48
2021/10/20 01:15:16;;;;;;;9.05;2.90;;;15.60;74.90;;;;;;5072742;28;20033;-48
2021/10/20 01:17:42;;;;;;;3.05;2.75;;;15.50;75.10;;;;;;5072834;28;20020;-48
2021/10/20 01:20:09;;;;;;;5.05;2.90;;;15.50;75.30;;;;;;5054399;28;20502;-52
2021/10/20 01:22:35;;;;;;;4.70;3.00;;;15.50;75.30;;;;;;5054489;28;20034;-48
2021/10/20 01:25:01;;;;;;;12.43;3.10;;;15.40;75.40;;;;;;5072500;28;20091;-49
2021/10/20 01:27:27;;;;;;;6.43;3.17;;;15.50;75.30;;;;;;5072563;28;20021;-53
2021/10/20 01:29:57;;;;;;;6.38;2.63;;;15.40;75.50;;;;;;5072539;28;20078;-51
2021/10/20 01:32:22;;;;;;;3.55;2.75;;;15.30;75.90;;;;;;5073244;28;20021;-49
2021/10/20 01:34:48;;;;;;;6.72;2.63;;;15.60;74.60;;;;;;5072566;28;20354;-47
2021/10/20 01:37:15;;;;;;;4.63;2.83;;;15.60;74.70;;;;;;5076241;28;20063;-48
2021/10/20 01:39:41;;;;;;;3.65;2.55;;;15.60;74.70;;;;;;5076896;28;20027;-47
2021/10/20 01:42:07;;;;;;;3.38;2.53;;;15.60;74.70;;;;;;5058671;28;20024;-47
2021/10/20 01:44:32;;;;;;;4.60;2.53;;;15.70;74.40;;;;;;5076684;28;20155;-46
2021/10/20 01:46:58;;;;;;;5.93;2.80;;;15.50;74.90;;;;;;5076841;28;20115;-47
2021/10/20 01:49:24;;;;;;;4.97;3.17;;;15.50;74.70;;;;;;5077043;28;20048;-51
2021/10/20 01:51:50;;;;;;;5.78;2.92;;;15.40;75.10;;;;;;5076622;28;20100;-48
2021/10/20 01:54:15;;;;;;;7.00;2.67;;;15.50;75.10;;;;;;5076544;28;20112;-52
2021/10/20 01:56:42;;;;;;;5.50;3.10;;;15.50;75.00;;;;;;5076512;28;20032;-48
2021/10/20 01:59:07;;;;;;;5.03;2.35;;;15.40;75.40;;;;;;5076395;28;20074;-49
2021/10/20 02:01:33;;;;;;;4.93;2.67;;;15.40;75.50;;;;;;5076115;28;20465;-50
2021/10/20 02:03:59;;;;;;;4.90;3.03;;;15.30;75.50;;;;;;5076314;28;20096;-50
2021/10/20 02:06:24;;;;;;;3.95;2.53;;;15.30;75.50;;;;;;5076014;28;20048;-51
2021/10/20 02:08:50;;;;;;;16.13;3.40;;;15.50;74.70;;;;;;5076152;28;20078;-51
2021/10/20 02:11:18;;;;;;;7.43;3.15;;;15.50;75.10;;;;;;5076779;28;20045;-49
2021/10/20 02:13:43;;;;;;;2.92;2.40;;;15.30;75.40;;;;;;5075972;28;20468;-48
2021/10/20 02:16:10;;;;;;;3.33;2.60;;;15.50;74.70;;;;;;5076246;28;20033;-46
2021/10/20 02:18:36;;;;;;;5.88;3.00;;;15.50;74.60;;;;;;5076157;28;20468;-46
2021/10/20 02:21:02;;;;;;;8.32;3.00;;;15.40;75.30;;;;;;5075708;28;20186;-47
2021/10/20 02:23:29;;;;;;;3.97;3.10;;;15.60;74.40;;;;;;5076033;28;20384;-46
2021/10/20 02:25:55;;;;;;;4.20;2.60;;;15.70;73.80;;;;;;5075705;28;20066;-48
2021/10/20 02:28:20;;;;;;;7.65;2.65;;;15.60;74.10;;;;;;5075731;28;20021;-49
2021/10/20 02:30:46;;;;;;;9.18;2.83;;;15.50;74.30;;;;;;5075650;28;20100;-47
2021/10/20 02:33:12;;;;;;;6.38;2.78;;;15.70;73.40;;;;;;5057567;28;20039;-47
2021/10/20 02:35:37;;;;;;;3.83;2.70;;;15.80;73.40;;;;;;5076377;28;20158;-47
2021/10/20 02:38:03;;;;;;;5.43;3.00;;;15.50;74.20;;;;;;5075557;28;20052;-47
2021/10/20 02:40:29;;;;;;;4.70;2.55;;;15.50;74.40;;;;;;5075429;28;20029;-48
2021/10/20 02:42:54;;;;;;;5.47;3.00;;;15.30;74.80;;;;;;5075633;28;20020;-47
2021/10/20 02:45:20;;;;;;;3.78;3.05;;;15.40;74.70;;;;;;5075670;28;20108;-47
2021/10/20 02:47:47;;;;;;;5.55;3.65;;;15.50;74.10;;;;;;5074577;28;20519;-47
2021/10/20 02:50:13;;;;;;;3.47;2.70;;;15.50;74.20;;;;;;5057327;28;20449;-46
2021/10/20 02:52:39;;;;;;;4.03;2.70;;;15.70;73.70;;;;;;5075500;28;20032;-47
2021/10/20 02:55:05;;;;;;;4.10;2.58;;;15.70;73.70;;;;;;5075492;28;20025;-48
2021/10/20 02:57:31;;;;;;;4.93;2.70;;;15.60;73.90;;;;;;5075133;28;20044;-46
2021/10/20 02:59:57;;;;;;;6.20;2.88;;;15.50;74.10;;;;;;5057197;28;20444;-47
2021/10/20 03:02:24;;;;;;;5.18;2.55;;;15.60;74.20;;;;;;5074941;28;20025;-47
2021/10/20 03:04:50;;;;;;;5.53;2.60;;;15.60;74.00;;;;;;5074887;28;20041;-48
2021/10/20 03:07:15;;;;;;;4.90;2.70;;;15.50;74.30;;;;;;5075107;28;20123;-47
2021/10/20 03:09:41;;;;;;;4.28;2.95;;;15.50;74.40;;;;;;5075210;28;20024;-47
2021/10/20 03:12:07;;;;;;;5.22;2.90;;;15.50;74.40;;;;;;5056937;28;20388;-46
2021/10/20 03:14:32;;;;;;;6.35;3.03;;;15.70;73.70;;;;;;5074865;28;20483;-47
2021/10/20 03:16:58;;;;;;;7.70;2.97;;;15.50;74.30;;;;;;5074890;28;20044;-47
2021/10/20 03:19:23;;;;;;;3.60;2.72;;;15.50;74.40;;;;;;5056916;28;20061;-47
2021/10/20 03:21:49;;;;;;;3.55;2.60;;;15.50;74.30;;;;;;5074687;28;20051;-47
2021/10/20 03:24:15;;;;;;;4.07;3.13;;;15.70;73.70;;;;;;5074766;28;20017;-46
2021/10/20 03:26:40;;;;;;;5.53;2.60;;;15.70;73.70;;;;;;5056673;28;20032;-47
2021/10/20 03:29:06;;;;;;;8.63;3.05;;;15.70;73.90;;;;;;5074599;28;20027;-47
2021/10/20 03:31:32;;;;;;;5.28;3.25;;;15.60;74.20;;;;;;5074362;28;20036;-46
2021/10/20 03:33:58;;;;;;;4.80;2.95;;;15.80;73.50;;;;;;5075026;28;20452;-47
2021/10/20 03:36:24;;;;;;;6.47;3.65;;;16.00;72.70;;;;;;5074364;28;20104;-46
2021/10/20 03:38:50;;;;;;;6.10;2.80;;;15.80;73.60;;;;;;5074379;28;20461;-45
2021/10/20 03:41:16;;;;;;;5.57;2.95;;;15.80;73.90;;;;;;5074224;28;20396;-47
2021/10/20 03:43:42;;;;;;;6.40;3.28;;;15.70;74.20;;;;;;5074306;28;20108;-49
2021/10/20 03:46:08;;;;;;;3.03;2.05;;;15.80;74.00;;;;;;5056674;28;20357;-48
2021/10/20 03:48:34;;;;;;;3.72;2.53;;;15.80;73.90;;;;;;5074203;28;20024;-47
2021/10/20 03:51:00;;;;;;;5.60;3.15;;;15.70;74.10;;;;;;5074309;28;20036;-48
2021/10/20 03:53:25;;;;;;;13.00;3.28;;;15.70;74.40;;;;;;5056117;28;20063;-48
2021/10/20 03:55:51;;;;;;;8.13;3.00;;;15.70;74.40;;;;;;5074088;28;20028;-48
2021/10/20 03:58:21;;;;;;;4.18;2.95;;;15.70;74.40;;;;;;5073914;28;20025;-47
2021/10/20 04:00:47;;;;;;;12.20;2.83;;;15.70;74.40;;;;;;5073124;28;20082;-47
2021/10/20 04:03:12;;;;;;;4.53;2.63;;;15.60;74.70;;;;;;5074018;28;20103;-47
2021/10/20 04:05:38;;;;;;;6.30;3.22;;;15.70;74.60;;;;;;5073629;28;20048;-47
2021/10/20 04:08:04;;;;;;;7.15;3.03;;;15.70;74.70;;;;;;5039206;28;20029;-47
2021/10/20 04:10:30;;;;;;;6.07;2.58;;;15.70;74.60;;;;;;5074249;28;20028;-49
2021/10/20 04:12:55;;;;;;;7.63;3.47;;;15.80;74.30;;;;;;5074186;28;20467;-47
2021/10/20 04:15:24;;;;;;;9.23;4.03;;;15.80;74.30;;;;;;5073537;28;20473;-48
2021/10/20 04:17:50;;;;;;;4.30;3.00;;;15.70;74.70;;;;;;5073690;28;20071;-48
2021/10/20 04:20:18;;;;;;;6.45;3.65;;;15.80;74.50;;;;;;5073552;28;20028;-47
2021/10/20 04:22:45;;;;;;;4.30;3.03;;;15.80;74.10;;;;;;5073717;28;20146;-48
2021/10/20 04:25:11;;;;;;;8.98;3.53;;;15.70;74.80;;;;;;5073662;28;20025;-47
2021/10/20 04:27:39;;;;;;;7.28;3.00;;;15.70;74.80;;;;;;5073379;28;20024;-48
2021/10/20 04:30:07;;;;;;;4.28;3.03;;;15.70;74.90;;;;;;5073819;28;20024;-48
2021/10/20 04:32:32;;;;;;;6.80;3.55;;;15.80;74.30;;;;;;5073456;28;20032;-50
2021/10/20 04:35:00;;;;;;;11.10;3.53;;;15.80;74.70;;;;;;5073522;28;20032;-47
2021/10/20 04:37:26;;;;;;;7.47;3.45;;;15.50;75.40;;;;;;5073387;28;20023;-47
2021/10/20 04:39:53;;;;;;;6.45;3.20;;;15.60;75.30;;;;;;5073292;28;20032;-46
2021/10/20 04:42:20;;;;;;;6.57;3.47;;;15.50;75.60;;;;;;5073206;28;20024;-50
2021/10/20 04:44:46;;;;;;;7.97;3.78;;;15.60;75.50;;;;;;5073376;28;20066;-50
2021/10/20 04:47:12;;;;;;;8.98;4.43;;;15.50;75.90;;;;;;5073542;28;20033;-46
2021/10/20 04:49:37;;;;;;;3.92;2.88;;;15.60;75.40;;;;;;5073317;28;20070;-47
2021/10/20 04:52:04;;;;;;;6.95;3.65;;;15.60;75.40;;;;;;5073071;28;20025;-47
2021/10/20 04:54:29;;;;;;;7.97;3.40;;;15.50;75.70;;;;;;5073603;28;20484;-45
2021/10/20 04:57:12;;;;;;;7.95;2.97;;;15.40;76.10;;;;;;5073877;28;20028;-45
2021/10/20 04:59:37;;;;;;;10.55;3.63;;;15.40;76.10;;;;;;5055136;28;20480;-46
2021/10/20 05:02:03;;;;;;;7.95;3.17;;;15.50;75.80;;;;;;5074102;28;20060;-49
2021/10/20 05:04:29;;;;;;;9.05;4.32;;;15.40;76.20;;;;;;5075116;28;20036;-47
2021/10/20 05:06:55;;;;;;;5.88;3.60;;;15.40;76.10;;;;;;5073534;28;20126;-47
2021/10/20 05:09:21;;;;;;;5.05;3.33;;;15.50;75.90;;;;;;5073205;28;20024;-48
2021/10/20 05:11:46;;;;;;;6.03;3.58;;;15.40;76.10;;;;;;5072748;28;20556;-48
2021/10/20 05:14:12;;;;;;;5.75;3.80;;;15.30;76.50;;;;;;5072856;28;20431;-51
2021/10/20 05:16:38;;;;;;;11.13;3.58;;;15.30;76.40;;;;;;5072802;28;20051;-46
2021/10/20 05:19:04;;;;;;;6.07;3.70;;;15.40;76.40;;;;;;5073064;28;20494;-47
2021/10/20 05:21:29;;;;;;;7.75;3.63;;;15.40;76.20;;;;;;5072629;28;20040;-46
2021/10/20 05:23:55;;;;;;;5.63;3.70;;;15.30;76.40;;;;;;5073282;28;20028;-37
2021/10/20 05:26:21;;;;;;;7.28;4.28;;;15.50;75.90;;;;;;5054803;28;20024;-36
2021/10/20 05:28:47;;;;;;;6.55;4.07;;;15.30;76.40;;;;;;5072983;28;20020;-36
2021/10/20 05:31:13;;;;;;;9.10;5.05;;;15.30;76.50;;;;;;5072789;28;20483;-38
2021/10/20 05:33:39;;;;;;;5.50;3.60;;;15.40;76.40;;;;;;5072951;28;20059;-38
2021/10/20 05:36:05;;;;;;;8.18;4.43;;;15.30;76.60;;;;;;5072815;28;20461;-38
2021/10/20 05:38:31;;;;;;;5.93;4.05;;;15.50;76.00;;;;;;5072992;28;20112;-38
2021/10/20 05:40:57;;;;;;;9.55;4.22;;;15.50;75.90;;;;;;5072848;28;20107;-37
2021/10/20 05:43:23;;;;;;;7.68;3.90;;;15.50;75.90;;;;;;5072444;28;20127;-37
2021/10/20 05:45:48;;;;;;;6.20;3.72;;;15.60;75.60;;;;;;5054539;28;20021;-37
2021/10/20 05:48:15;;;;;;;5.93;3.88;;;15.50;76.10;;;;;;5072463;28;20379;-39
2021/10/20 05:50:42;;;;;;;6.40;4.10;;;15.40;76.40;;;;;;5072331;28;20020;-37
2021/10/20 05:53:07;;;;;;;9.40;4.88;;;15.50;76.00;;;;;;5072771;28;20024;-37
2021/10/20 05:55:33;;;;;;;6.20;4.07;;;15.50;76.10;;;;;;5072552;28;20033;-37
2021/10/20 05:57:59;;;;;;;10.05;4.38;;;15.40;76.30;;;;;;5054417;28;20025;-37
2021/10/20 06:00:24;;;;;;;6.60;3.15;;;15.40;76.50;;;;;;5072342;28;20060;-37
2021/10/20 06:02:50;;;;;;;8.38;4.20;;;15.50;76.10;;;;;;5072473;28;20396;-37
2021/10/20 06:05:16;;;;;;;8.10;4.18;;;15.40;76.40;;;;;;5072365;28;20059;-37
2021/10/20 06:07:43;;;;;;;7.05;4.35;;;15.30;76.80;;;;;;5072477;28;20028;-37
2021/10/20 06:10:10;;;;;;;6.32;4.22;;;15.30;77.00;;;;;;5072302;28;20053;-37
2021/10/20 06:12:36;;;;;;;7.10;3.67;;;15.40;76.30;;;;;;5039309;28;20021;-37
2021/10/20 06:15:02;;;;;;;6.55;4.50;;;15.60;75.80;;;;;;5055251;28;20021;-37
2021/10/20 06:17:28;;;;;;;7.60;4.05;;;15.60;75.60;;;;;;5072317;28;20108;-37
2021/10/20 06:19:53;;;;;;;5.45;4.68;;;15.60;75.90;;;;;;5054463;28;20100;-38
2021/10/20 06:22:19;;;;;;;8.60;4.03;;;15.40;76.30;;;;;;5072180;28;20025;-38
2021/10/20 06:24:45;;;;;;;5.85;4.63;;;15.50;76.20;;;;;;5075842;28;20020;-41
2021/10/20 06:27:10;;;;;;;10.82;5.18;;;15.30;77.00;;;;;;5075820;28;20199;-37
2021/10/20 06:29:36;;;;;;;11.55;4.18;;;15.40;76.90;;;;;;5076121;28;20473;-37
2021/10/20 06:32:02;;;;;;;6.35;4.28;;;15.30;77.10;;;;;;5075707;28;20361;-38
2021/10/20 06:34:28;;;;;;;5.65;4.90;;;15.40;76.50;;;;;;5057648;28;20403;-38
2021/10/20 06:36:53;;;;;;;10.52;4.20;;;15.40;76.50;;;;;;5057621;28;20020;-39
2021/10/20 06:39:23;;;;;;;8.40;4.07;;;15.40;76.60;;;;;;5075166;28;20362;-36
2021/10/20 06:41:50;;;;;;;7.18;4.85;;;15.50;76.30;;;;;;5057288;28;20025;-37
2021/10/20 06:44:16;;;;;;;5.88;3.88;;;15.60;76.20;;;;;;5075190;28;20499;-37
2021/10/20 06:46:42;;;;;;;7.35;4.38;;;15.50;76.20;;;;;;5075168;28;20131;-37
2021/10/20 06:49:08;;;;;;;6.43;4.20;;;15.40;76.80;;;;;;5057238;28;20111;-37
2021/10/20 06:51:33;;;;;;;5.40;3.67;;;15.50;76.70;;;;;;5075873;28;20044;-37
2021/10/20 06:53:59;;;;;;;7.78;4.15;;;15.50;76.60;;;;;;5075095;28;20020;-36
2021/10/20 06:56:25;;;;;;;13.68;3.88;;;15.50;76.40;;;;;;5075242;28;20035;-37
2021/10/20 06:58:52;;;;;;;6.22;4.22;;;15.40;76.90;;;;;;5056892;28;20534;-37
2021/10/20 07:01:17;;;;;;;9.07;4.13;;;15.40;76.80;;;;;;5074805;28;20016;-38
2021/10/20 07:03:44;;;;;;;5.82;4.47;;;15.40;76.80;;;;;;5074974;28;20027;-37
2021/10/20 07:06:10;;;;;;;6.25;4.05;;;15.40;76.80;;;;;;5074885;28;20511;-37
2021/10/20 07:08:36;;;;;;;10.95;4.82;;;15.50;76.70;;;;;;5057122;28;20458;-38
2021/10/20 07:11:02;;;;;;;7.93;3.97;;;15.50;76.60;;;;;;5057118;28;20071;-37
2021/10/20 07:13:27;;;;;;;8.75;4.03;;;15.70;76.20;;;;;;5075010;28;20021;-37
2021/10/20 07:15:53;;;;;;;8.00;3.92;;;15.60;76.80;;;;;;5075022;28;20039;-38
2021/10/20 07:18:20;;;;;;;6.65;4.32;;;15.70;76.60;;;;;;5075057;28;20051;-37
2021/10/20 07:20:46;;;;;;;8.40;3.80;;;15.70;76.20;;;;;;5074700;28;20480;-39
2021/10/20 07:23:12;;;;;;;6.47;4.07;;;15.70;76.20;;;;;;5040395;28;20033;-37
2021/10/20 07:25:38;;;;;;;4.80;3.83;;;15.60;76.30;;;;;;5074589;28;20024;-38
2021/10/20 07:28:04;;;;;;;6.53;3.97;;;15.70;76.30;;;;;;5074532;28;20025;-37
2021/10/20 07:30:30;;;;;;;7.22;4.28;;;15.80;75.70;;;;;;5056441;28;20029;-38
2021/10/20 07:32:56;;;;;;;10.43;4.13;;;15.80;75.50;;;;;;5074479;28;20031;-38
2021/10/20 07:35:22;;;;;;;7.82;3.80;;;15.80;75.80;;;;;;5074167;28;20033;-37
2021/10/20 07:37:48;;;;;;;5.20;4.30;;;15.80;75.50;;;;;;5074320;28;20028;-37
2021/10/20 07:40:15;;;;;;;5.25;4.07;;;15.80;75.40;;;;;;5074317;28;20090;-38
2021/10/20 07:42:44;;;;;;;6.60;3.95;;;15.90;75.10;;;;;;5074416;28;20074;-37
2021/10/20 07:45:14;;;;;;;9.48;5.70;;;16.00;74.90;;;;;;5074628;28;20020;-37
2021/10/20 07:47:41;;;;;;;;;;;15.90;75.10;;;;;;5040239;28;20020;-37
2021/10/20 07:50:07;;;;;;;8.95;3.63;;;16.00;74.90;;;;;;5073906;28;19908;-36
2021/10/20 07:52:33;;;;;;;6.13;3.97;;;15.90;75.40;;;;;;5074723;28;20368;-36
2021/10/20 07:55:00;;;;;;;5.93;4.13;;;16.00;75.20;;;;;;5073930;28;20029;-38
2021/10/20 07:57:28;;;;;;;10.98;4.20;;;16.00;75.40;;;;;;5074171;28;20062;-38
2021/10/20 07:59:53;;;;;;;8.85;4.13;;;15.90;75.60;;;;;;5074559;28;20029;-38
2021/10/20 08:02:20;;;;;;;4.28;3.78;;;16.20;74.80;;;;;;5073596;28;20035;-37
2021/10/20 08:04:46;;;;;;;9.05;3.40;;;16.30;74.70;;;;;;5056069;28;20122;-37
2021/10/20 08:07:12;;;;;;;10.50;4.15;;;16.30;74.80;;;;;;5074112;28;20029;-37
2021/10/20 08:09:38;;;;;;;7.10;4.13;;;16.40;74.30;;;;;;5074078;28;20074;-38
2021/10/20 08:12:04;;;;;;;8.38;4.30;;;16.50;74.30;;;;;;5074292;28;20472;-37
2021/10/20 08:14:30;;;;;;;6.68;4.80;;;16.50;74.70;;;;;;5074039;28;20411;-38
2021/10/20 08:16:55;;;;;;;6.63;4.03;;;16.50;74.50;;;;;;5073625;28;20083;-37
2021/10/20 08:19:21;;;;;;;7.72;3.92;;;16.40;74.90;;;;;;5073465;28;20020;-39
2021/10/20 08:21:47;;;;;;;7.03;4.38;;;16.30;75.40;;;;;;5073245;28;20025;-37
2021/10/20 08:24:13;;;;;;;7.65;4.43;;;16.30;75.70;;;;;;5073038;28;20048;-38
2021/10/20 08:26:38;;;;;;;7.90;4.32;;;16.30;75.90;;;;;;5055165;28;20077;-38
2021/10/20 08:29:04;;;;;;;5.05;3.97;;;16.30;75.90;;;;;;5073149;28;20481;-38
2021/10/20 08:31:30;;;;;;;7.05;4.65;;;16.30;76.00;;;;;;5055554;28;20032;-38
2021/10/20 08:33:55;;;;;;;6.68;4.90;;;16.40;75.50;;;;;;5073232;28;20077;-38
2021/10/20 08:36:21;;;;;;;13.35;5.63;;;16.50;75.40;;;;;;5073474;28;20055;-39
2021/10/20 08:38:47;;;;;;;6.95;4.50;;;16.50;75.70;;;;;;5055436;28;20404;-37
2021/10/20 08:41:14;;;;;;;5.05;4.25;;;16.50;75.70;;;;;;5073231;28;20020;-37
2021/10/20 08:43:40;;;;;;;6.30;4.10;;;16.60;75.50;;;;;;5055855;28;20538;-38
2021/10/20 08:46:06;;;;;;;4.95;4.03;;;16.70;75.10;;;;;;5054309;28;20021;-38
2021/10/20 08:48:32;;;;;;;9.35;4.97;;;17.10;73.90;;;;;;5073648;28;20024;-43
2021/10/20 08:50:59;;;;;;;6.82;4.68;;;17.20;73.60;;;;;;5072945;28;20495;-38
2021/10/20 08:53:25;;;;;;;16.60;5.32;;;17.50;72.80;;;;;;5073104;28;20464;-38
2021/10/20 08:55:51;;;;;;;6.30;3.65;;;17.50;72.50;;;;;;5072892;28;20064;-38
2021/10/20 08:58:18;;;;;;;9.07;4.13;;;17.60;72.60;;;;;;5072703;28;20020;-39
2021/10/20 09:00:44;;;;;;;7.03;5.30;;;17.40;73.10;;;;;;5073311;28;20028;-38
2021/10/20 09:03:11;;;;;;;6.50;4.28;;;17.70;72.50;;;;;;5072839;28;20055;-37
2021/10/20 09:05:37;;;;;;;9.90;4.35;;;17.60;72.50;;;;;;5072174;28;20397;-37
2021/10/20 09:08:03;;;;;;;7.72;4.88;;;17.60;72.60;;;;;;5072684;28;20024;-37
2021/10/20 09:10:31;;;;;;;6.40;4.40;;;17.50;72.70;;;;;;5072585;28;20040;-38
2021/10/20 09:12:58;;;;;;;7.68;4.30;;;17.50;72.90;;;;;;5054261;28;20044;-38
2021/10/20 09:15:26;;;;;;;7.63;4.40;;;17.40;73.40;;;;;;5072320;28;20503;-38
2021/10/20 09:17:57;;;;;;;10.48;5.57;;;17.30;74.30;;;;;;5072268;28;20085;-38
2021/10/20 09:20:37;;;;;;;6.05;4.43;;;17.50;73.60;;;;;;5072432;28;20499;-38
2021/10/20 09:23:09;;;;;;;7.15;4.80;;;17.40;73.30;;;;;;5072501;28;20496;-38
2021/10/20 09:25:39;;;;;;;5.97;4.35;;;17.30;73.80;;;;;;5072794;28;20052;-38
2021/10/20 09:28:09;;;;;;;7.65;5.28;;;17.40;73.90;;;;;;5072911;28;20025;-39
2021/10/20 09:30:38;;;;;;;6.32;4.70;;;17.40;74.10;;;;;;5072901;28;20021;-39
2021/10/20 09:33:06;;;;;;;10.70;5.70;;;17.20;75.70;;;;;;5072495;28;20108;-38
2021/10/20 09:35:34;;;;;;;8.52;4.60;;;16.90;77.40;;;;;;5072649;28;20169;-38
2021/10/20 09:38:00;;;;;;;6.43;5.05;;;16.70;79.10;;;;;;5072432;28;20047;-38
2021/10/20 09:40:42;;;;;;;10.70;6.35;;;16.40;80.40;;;;;;5072774;28;20446;-38
2021/10/20 09:43:17;;;;;;;7.18;5.00;;;16.30;81.20;;;;;;5072579;28;20169;-38
2021/10/20 09:45:44;;;;;;;8.95;6.20;;;16.30;81.00;;;;;;5072200;28;20024;-38
2021/10/20 09:48:21;;;;;;;7.10;5.30;;;16.40;81.10;;;;;;5072819;28;20028;-38
2021/10/20 09:51:06;;;;;;;9.32;5.05;;;16.50;81.00;;;;;;5072655;28;20021;-38
2021/10/20 09:53:38;;;;;;;6.40;3.90;;;16.40;80.80;;;;;;5072212;28;20419;-37
2021/10/20 09:56:19;;;;;;;8.40;4.43;;;16.50;80.10;;;;;;5072364;28;20151;-38
2021/10/20 09:58:46;;;;;;;9.32;5.05;;;16.40;80.30;;;;;;5076231;28;20484;-40
2021/10/20 10:01:20;;;;;;;14.35;6.07;;;16.50;79.70;;;;;;5079034;28;20419;-38
2021/10/20 10:03:47;;;;;;;5.70;4.03;;;16.80;78.90;;;;;;5077169;28;20388;-39
2021/10/20 10:06:22;;;;;;;5.80;4.68;;;16.80;78.30;;;;;;5075550;28;20489;-40
2021/10/20 10:08:48;;;;;;;6.43;4.60;;;16.80;77.30;;;;;;5075614;28;20027;-38
2021/10/20 10:11:14;;;;;;;6.05;4.38;;;16.90;77.80;;;;;;5076000;28;20380;-38
2021/10/20 10:13:45;;;;;;;6.07;3.50;;;17.10;77.00;;;;;;5075135;28;20082;-38
2021/10/20 10:16:12;;;;;;;9.77;4.85;;;17.00;77.50;;;;;;5075051;28;20104;-37
2021/10/20 10:18:40;;;;;;;6.10;3.97;;;17.00;77.60;;;;;;5075346;28;20020;-38
2021/10/20 10:21:42;;;;;;;4.93;3.80;;;16.90;77.00;;;;;;5075457;28;20082;-37
2021/10/20 10:24:15;;;;;;;9.32;5.13;;;17.00;76.10;;;;;;4994016;28;20429;-37
2021/10/20 10:27:11;;;;;;;5.50;4.13;;;17.10;75.90;;;;;;5063555;28;20443;-38
2021/10/20 10:29:54;;;;;;;9.98;5.38;;;17.20;75.60;;;;;;5057657;28;20120;-38
2021/10/20 10:32:21;;;;;;;4.97;3.58;;;17.10;75.40;;;;;;5075575;28;20028;-37
2021/10/20 10:34:50;;;;;;;9.25;5.07;;;17.00;75.80;;;;;;5075494;28;20020;-38
2021/10/20 10:37:22;;;;;;;6.43;4.63;;;17.00;75.80;;;;;;5075762;28;20540;-38
2021/10/20 10:39:50;;;;;;;6.85;5.22;;;16.80;77.10;;;;;;5075570;28;20032;-37
2021/10/20 10:42:16;;;;;;;9.70;4.72;;;16.80;77.60;;;;;;5075796;28;20024;-38
2021/10/20 10:44:46;;;;;;;8.18;5.45;;;16.90;77.10;;;;;;5057321;28;20031;-38
2021/10/20 10:47:28;;;;;;;5.80;4.47;;;16.90;76.40;;;;;;5075368;28;20082;-38
2021/10/20 10:49:56;;;;;;;8.57;4.60;;;16.80;76.70;;;;;;5058423;28;20384;-37
2021/10/20 10:52:35;;;;;;;6.35;4.15;;;16.90;76.00;;;;;;5057267;28;20020;-38
2021/10/20 10:55:05;;;;;;;8.13;4.50;;;16.90;75.80;;;;;;5075288;28;20020;-38
2021/10/20 10:57:42;;;;;;;7.95;5.20;;;16.90;76.30;;;;;;5075222;28;20472;-38
2021/10/20 11:00:08;;;;;;;5.10;4.07;;;17.00;75.10;;;;;;5074797;28;20079;-38
2021/10/20 11:02:44;;;;;;;6.60;4.70;;;16.80;75.70;;;;;;5074462;28;20058;-38
2021/10/20 11:05:10;;;;;;;6.63;4.53;;;16.80;76.20;;;;;;5075103;28;20047;-37
2021/10/20 11:07:36;;;;;;;7.10;4.53;;;16.80;75.90;;;;;;5074431;28;20024;-38
2021/10/20 11:10:04;;;;;;;6.28;4.53;;;16.80;75.60;;;;;;5056401;28;20031;-38
2021/10/20 11:12:34;;;;;;;6.38;3.83;;;16.90;75.00;;;;;;5056699;28;20078;-39
2021/10/20 11:14:59;;;;;;;11.27;5.60;;;16.80;75.50;;;;;;5074156;28;20024;-38
2021/10/20 11:17:25;;;;;;;7.78;4.82;;;16.90;75.20;;;;;;5074399;28;20487;-39
2021/10/20 11:19:51;;;;;;;6.80;4.55;;;16.80;75.40;;;;;;5076354;28;20108;-49
2021/10/20 11:22:18;;;;;;;5.65;4.43;;;16.90;75.30;;;;;;5075815;28;20500;-52
2021/10/20 11:24:46;;;;;;;6.95;4.30;;;16.90;75.10;;;;;;5074468;28;20095;-53
2021/10/20 11:27:13;;;;;;;5.60;4.13;;;17.00;74.80;;;;;;5074474;28;20027;-47
2021/10/20 11:29:46;;;;;;;7.10;4.75;;;17.00;75.30;;;;;;5075014;28;20024;-47
2021/10/20 11:32:15;;;;;;;5.75;4.65;;;17.00;75.40;;;;;;5074241;28;20028;-50
2021/10/20 11:34:43;;;;;;;6.60;5.20;;;17.10;75.40;;;;;;5073935;28;20333;-48
2021/10/20 11:37:10;;;;;;;8.38;3.80;;;17.10;75.10;;;;;;5073944;28;20468;-47
2021/10/20 11:39:40;;;;;;;9.40;6.18;;;17.20;75.10;;;;;;5073513;28;20482;-47
2021/10/20 11:42:12;;;;;;;7.88;4.22;;;17.10;75.90;;;;;;5073730;28;20021;-49
2021/10/20 11:44:40;;;;;;;5.55;4.20;;;17.20;74.70;;;;;;5074795;28;20017;-50
2021/10/20 11:47:09;;;;;;;5.72;3.50;;;17.30;75.20;;;;;;5073853;28;20021;-47
2021/10/20 11:49:36;;;;;;;6.05;4.78;;;17.20;75.40;;;;;;5073481;28;20025;-47
2021/10/20 11:52:06;;;;;;;9.48;4.70;;;17.20;75.60;;;;;;5073607;28;20024;-48
2021/10/20 11:54:32;;;;;;;10.70;4.80;;;17.30;76.10;;;;;;5073598;28;20491;-49
2021/10/20 11:56:59;;;;;;;7.68;4.88;;;17.20;75.90;;;;;;5073488;28;20028;-49
2021/10/20 11:59:29;;;;;;;7.75;5.07;;;17.20;76.10;;;;;;5073717;28;20310;-46
2021/10/20 12:01:55;;;;;;;7.45;5.25;;;17.10;76.50;;;;;;5073568;28;20021;-47
2021/10/20 12:04:23;;;;;;;10.20;5.28;;;17.20;76.70;;;;;;5056103;28;20508;-48
2021/10/20 12:06:52;;;;;;;5.90;4.68;;;17.10;76.90;;;;;;5073327;28;20033;-48
2021/10/20 12:09:18;;;;;;;9.15;5.20;;;17.10;77.00;;;;;;5055844;28;20017;-48
2021/10/20 12:11:45;;;;;;;8.52;5.25;;;17.20;77.10;;;;;;5055189;28;20028;-47
2021/10/20 12:14:14;;;;;;;5.30;4.45;;;17.20;77.20;;;;;;5073470;28;20029;-47
2021/10/20 12:16:42;;;;;;;14.53;7.90;;;17.30;76.70;;;;;;5055038;28;20150;-48
2021/10/20 12:19:14;;;;;;;10.38;5.53;;;17.20;77.10;;;;;;5073756;28;20032;-52
2021/10/20 12:21:41;;;;;;;8.25;4.95;;;17.30;77.30;;;;;;5039164;28;20496;-49
2021/10/20 12:24:08;;;;;;;8.05;5.47;;;17.30;77.30;;;;;;5073760;28;20024;-48
2021/10/20 12:26:36;;;;;;;9.85;5.38;;;17.30;77.40;;;;;;5073387;28;20095;-48
2021/10/20 12:29:13;;;;;;;8.73;5.25;;;17.20;77.90;;;;;;5073495;28;20024;-51
2021/10/20 12:31:39;;;;;;;6.70;4.90;;;17.20;77.90;;;;;;5073344;28;20052;-48
2021/10/20 12:34:06;;;;;;;7.65;5.47;;;17.20;77.90;;;;;;5055566;28;20060;-48
2021/10/20 12:36:37;;;;;;;7.53;4.43;;;17.20;77.70;;;;;;5073104;28;20090;-47
2021/10/20 12:39:04;;;;;;;9.75;4.75;;;17.30;77.70;;;;;;5055331;28;20466;-48
2021/10/20 12:41:34;;;;;;;8.10;4.95;;;17.30;77.60;;;;;;5072894;28;20469;-48
2021/10/20 12:44:01;;;;;;;;;;;17.30;77.70;;;;;;5073232;28;20020;-48
2021/10/20 12:46:29;;;;;;;8.25;5.10;;;17.30;77.60;;;;;;5072991;28;19934;-50